createdAt,value
2017-01-19T00:00:03.867Z,-2.52
2017-01-19T00:00:25.585Z,-2.52
2017-01-19T00:00:52.061Z,-2.56
2017-01-19T00:01:13.768Z,-2.54
2017-01-19T00:01:35.475Z,-2.55
2017-01-19T00:01:57.264Z,-2.60
2017-01-19T00:02:18.961Z,-2.58
2017-01-19T00:02:40.654Z,-2.64
2017-01-19T00:03:07.140Z,-2.61
2017-01-19T00:03:28.851Z,-2.65
2017-01-19T00:04:00.099Z,-2.61
2017-01-19T00:04:21.809Z,-2.57
2017-01-19T00:04:55.858Z,-2.53
2017-01-19T00:05:17.555Z,-2.53
2017-01-19T00:05:44.028Z,-2.58
2017-01-19T00:06:06.956Z,-2.60
2017-01-19T00:06:33.526Z,-2.60
2017-01-19T00:06:55.322Z,-2.61
2017-01-19T00:07:21.797Z,-2.57
2017-01-19T00:07:43.494Z,-2.58
2017-01-19T00:08:05.207Z,-2.57
2017-01-19T00:08:27.007Z,-2.57
2017-01-19T00:08:53.482Z,-2.61
2017-01-19T00:09:18.168Z,-2.61
2017-01-19T00:09:44.636Z,-2.65
2017-01-19T00:10:06.334Z,-2.62
2017-01-19T00:10:32.816Z,-2.56
2017-01-19T00:10:54.523Z,-2.50
2017-01-19T00:12:47.423Z,-2.55
2017-01-19T00:13:11.755Z,-2.56
2017-01-19T00:13:33.441Z,-2.58
2017-01-19T00:14:02.673Z,-2.57
2017-01-19T00:14:24.383Z,-2.53
2017-01-19T00:14:46.196Z,-2.54
2017-01-19T00:15:12.680Z,-2.56
2017-01-19T00:15:34.382Z,-2.55
2017-01-19T00:16:00.861Z,-2.60
2017-01-19T00:16:22.693Z,-2.62
2017-01-19T00:16:47.361Z,-2.64
2017-01-19T00:17:13.851Z,-2.67
2017-01-19T00:17:35.589Z,-2.69
2017-01-19T00:18:02.069Z,-2.68
2017-01-19T00:18:23.772Z,-2.66
2017-01-19T00:18:45.469Z,-2.64
2017-01-19T00:19:16.725Z,-2.65
2017-01-19T00:19:38.421Z,-2.62
2017-01-19T00:20:09.672Z,-2.64
2017-01-19T00:20:31.477Z,-2.64
2017-01-19T00:20:53.185Z,-2.64
2017-01-19T00:21:14.893Z,-2.66
2017-01-19T00:21:36.670Z,-2.66
2017-01-19T00:21:58.372Z,-2.68
2017-01-19T00:22:20.077Z,-2.66
2017-01-19T00:22:46.571Z,-2.64
2017-01-19T00:23:08.267Z,-2.67
2017-01-19T00:23:29.965Z,-2.64
2017-01-19T00:23:51.665Z,-2.64
2017-01-19T00:24:13.365Z,-2.65
2017-01-19T00:24:35.063Z,-2.68
2017-01-19T00:24:56.867Z,-2.62
2017-01-19T00:25:23.342Z,-2.64
2017-01-19T00:25:45.149Z,-2.71
2017-01-19T00:26:11.633Z,-2.67
2017-01-19T00:26:33.349Z,-2.71
2017-01-19T00:27:04.593Z,-2.67
2017-01-19T00:27:26.292Z,-2.71
2017-01-19T00:27:48.006Z,-2.73
2017-01-19T00:28:09.798Z,-2.75
2017-01-19T00:28:31.505Z,-2.71
2017-01-19T00:28:53.213Z,-2.70
2017-01-19T00:29:17.779Z,-2.72
2017-01-19T00:29:39.485Z,-2.69
2017-01-19T00:30:01.194Z,-2.73
2017-01-19T00:30:22.895Z,-2.70
2017-01-19T00:30:44.631Z,-2.70
2017-01-19T00:31:15.891Z,-2.72
2017-01-19T00:31:37.590Z,-2.71
2017-01-19T00:31:59.296Z,-2.66
2017-01-19T00:32:21.017Z,-2.64
2017-01-19T00:32:42.714Z,-2.63
2017-01-19T00:33:04.416Z,-2.66
2017-01-19T00:33:35.669Z,-2.65
2017-01-19T00:33:57.452Z,-2.65
2017-01-19T00:34:19.248Z,-2.68
2017-01-19T00:34:45.740Z,-2.72
2017-01-19T00:35:07.551Z,-2.69
2017-01-19T00:35:29.248Z,-2.70
2017-01-19T00:36:31.757Z,-2.68
2017-01-19T00:36:53.458Z,-2.68
2017-01-19T00:37:15.171Z,-2.76
2017-01-19T00:37:39.491Z,-2.81
2017-01-19T00:38:01.194Z,-2.83
2017-01-19T00:38:22.894Z,-2.81
2017-01-19T00:38:49.369Z,-2.78
2017-01-19T00:39:11.083Z,-2.81
2017-01-19T00:39:37.565Z,-2.79
2017-01-19T00:39:59.278Z,-2.80
2017-01-19T00:40:20.987Z,-2.82
2017-01-19T00:40:47.453Z,-2.78
2017-01-19T00:41:09.157Z,-2.82
2017-01-19T00:41:30.911Z,-2.78
2017-01-19T00:42:02.162Z,-2.73
2017-01-19T00:42:23.852Z,-2.76
2017-01-19T00:42:50.332Z,-2.79
2017-01-19T00:43:12.131Z,-2.81
2017-01-19T00:43:38.629Z,-2.78
2017-01-19T00:44:00.316Z,-2.81
2017-01-19T00:44:22.024Z,-2.81
2017-01-19T00:44:48.504Z,-2.78
2017-01-19T00:45:10.199Z,-2.72
2017-01-19T00:45:39.528Z,-2.72
2017-01-19T00:46:05.974Z,-2.75
2017-01-19T00:46:27.682Z,-2.76
2017-01-19T00:46:49.369Z,-2.73
2017-01-19T00:47:11.169Z,-2.72
2017-01-19T00:48:04.126Z,-2.73
2017-01-19T00:48:30.597Z,-2.72
2017-01-19T00:48:52.293Z,-2.77
2017-01-19T00:49:14.002Z,-2.76
2017-01-19T00:49:35.703Z,-2.80
2017-01-19T00:49:57.404Z,-2.85
2017-01-19T00:50:19.097Z,-2.92
2017-01-19T00:51:22.184Z,-2.92
2017-01-19T00:51:43.877Z,-2.91
2017-01-19T00:52:12.973Z,-2.92
2017-01-19T00:52:34.710Z,-2.94
2017-01-19T00:53:05.977Z,-2.90
2017-01-19T00:53:27.684Z,-2.89
2017-01-19T00:53:49.388Z,-2.93
2017-01-19T00:54:11.108Z,-2.95
2017-01-19T00:54:32.812Z,-2.88
2017-01-19T00:54:54.519Z,-2.87
2017-01-19T00:55:16.339Z,-2.85
2017-01-19T00:55:38.155Z,-2.83
2017-01-19T00:56:02.468Z,-2.86
2017-01-19T00:56:24.206Z,-2.88
2017-01-19T00:57:20.108Z,-2.84
2017-01-19T00:57:41.841Z,-2.83
2017-01-19T00:58:03.549Z,-2.87
2017-01-19T00:58:25.273Z,-2.86
2017-01-19T00:58:46.974Z,-2.89
2017-01-19T00:59:11.754Z,-2.88
2017-01-19T00:59:33.459Z,-2.87
2017-01-19T00:59:55.167Z,-2.85
2017-01-19T01:00:16.878Z,-2.84
2017-01-19T01:01:19.395Z,-2.78
2017-01-19T01:01:41.147Z,-2.79
2017-01-19T01:02:05.674Z,-2.83
2017-01-19T01:02:27.554Z,-2.80
2017-01-19T01:02:49.661Z,-2.77
2017-01-19T01:03:11.537Z,-2.73
2017-01-19T01:03:33.572Z,-2.75
2017-01-19T01:03:55.455Z,-2.76
2017-01-19T01:04:17.424Z,-2.77
2017-01-19T01:04:39.341Z,-2.77
2017-01-19T01:05:01.342Z,-2.74
2017-01-19T01:05:23.314Z,-2.77
2017-01-19T01:05:45.753Z,-2.77
2017-01-19T01:06:07.840Z,-2.81
2017-01-19T01:06:29.762Z,-2.90
2017-01-19T01:06:52.139Z,-2.88
2017-01-19T01:07:13.923Z,-2.87
2017-01-19T01:07:36.098Z,-2.87
2017-01-19T01:07:58.032Z,-2.85
2017-01-19T01:08:20.091Z,-2.88
2017-01-19T01:08:42.102Z,-2.94
2017-01-19T01:09:04.000Z,-2.92
2017-01-19T01:09:25.969Z,-2.91
2017-01-19T01:09:47.888Z,-2.91
2017-01-19T01:10:09.865Z,-2.94
2017-01-19T01:10:31.755Z,-2.96
2017-01-19T01:10:53.483Z,-2.99
2017-01-19T01:11:15.263Z,-3.04
2017-01-19T01:11:37.314Z,-3.01
2017-01-19T01:12:04.183Z,-3.04
2017-01-19T01:12:26.016Z,-3.07
2017-01-19T01:12:47.840Z,-3.06
2017-01-19T01:13:09.759Z,-3.08
2017-01-19T01:13:31.825Z,-3.05
2017-01-19T01:13:53.645Z,-3.08
2017-01-19T01:14:15.680Z,-3.12
2017-01-19T01:14:37.503Z,-3.13
2017-01-19T01:14:59.308Z,-3.06
2017-01-19T01:15:21.332Z,-3.04
2017-01-19T01:15:43.282Z,-3.04
2017-01-19T01:17:13.596Z,-2.95
2017-01-19T01:17:35.324Z,-3.01
2017-01-19T01:17:57.129Z,-2.99
2017-01-19T01:18:55.627Z,-3.04
2017-01-19T01:19:17.520Z,-3.03
2017-01-19T01:19:39.479Z,-3.01
2017-01-19T01:20:06.125Z,-3.01
2017-01-19T01:20:28.121Z,-3.00
2017-01-19T01:20:50.187Z,-2.97
2017-01-19T01:21:12.249Z,-2.94
2017-01-19T01:21:34.194Z,-2.95
2017-01-19T01:21:56.146Z,-3.00
2017-01-19T01:22:18.159Z,-3.03
2017-01-19T01:22:40.031Z,-3.02
2017-01-19T01:23:28.828Z,-2.95
2017-01-19T01:24:17.633Z,-2.98
2017-01-19T01:24:42.416Z,-2.99
2017-01-19T01:25:07.184Z,-3.00
2017-01-19T01:25:31.823Z,-3.06
2017-01-19T01:26:25.008Z,-3.04
2017-01-19T01:26:46.815Z,-2.99
2017-01-19T01:27:08.959Z,-3.02
2017-01-19T01:27:31.535Z,-3.00
2017-01-19T01:27:53.410Z,-3.01
2017-01-19T01:29:59.000Z,-3.12
2017-01-19T01:30:23.564Z,-3.13
2017-01-19T01:31:12.994Z,-3.05
2017-01-19T01:31:34.833Z,-3.08
2017-01-19T01:31:56.593Z,-3.04
2017-01-19T01:32:18.725Z,-3.02
2017-01-19T01:35:51.783Z,-3.05
2017-01-19T01:36:13.517Z,-3.06
2017-01-19T01:36:35.253Z,-3.08
2017-01-19T01:36:56.987Z,-3.06
2017-01-19T01:37:18.733Z,-3.09
2017-01-19T01:37:40.464Z,-3.09
2017-01-19T01:38:02.213Z,-3.09
2017-01-19T01:38:24.064Z,-3.10
2017-01-19T01:38:45.798Z,-3.14
2017-01-19T01:39:07.553Z,-3.15
2017-01-19T01:39:29.298Z,-3.13
2017-01-19T01:39:51.041Z,-3.11
2017-01-19T01:40:12.772Z,-3.12
2017-01-19T01:40:34.520Z,-3.13
2017-01-19T01:40:56.256Z,-3.13
2017-01-19T01:41:18.010Z,-3.10
2017-01-19T01:41:39.749Z,-3.12
2017-01-19T01:42:01.501Z,-3.14
2017-01-19T01:42:23.236Z,-3.17
2017-01-19T01:42:44.969Z,-3.18
2017-01-19T01:43:06.768Z,-3.17
2017-01-19T01:43:28.495Z,-3.14
2017-01-19T01:43:50.236Z,-3.15
2017-01-19T01:44:11.976Z,-3.19
2017-01-19T01:44:33.712Z,-3.22
2017-01-19T01:44:55.478Z,-3.21
2017-01-19T01:45:17.222Z,-3.14
2017-01-19T01:45:38.968Z,-3.14
2017-01-19T01:46:00.732Z,-3.15
2017-01-19T01:46:22.499Z,-3.11
2017-01-19T01:46:44.233Z,-3.10
2017-01-19T01:47:05.973Z,-3.12
2017-01-19T01:47:27.716Z,-3.14
2017-01-19T01:47:49.554Z,-3.14
2017-01-19T01:48:11.305Z,-3.14
2017-01-19T01:48:33.038Z,-3.15
2017-01-19T01:48:54.771Z,-3.15
2017-01-19T01:49:16.511Z,-3.20
2017-01-19T01:49:38.250Z,-3.19
2017-01-19T01:49:59.987Z,-3.24
2017-01-19T01:50:21.739Z,-3.29
2017-01-19T01:50:43.479Z,-3.33
2017-01-19T01:51:05.229Z,-3.32
2017-01-19T01:51:26.981Z,-3.33
2017-01-19T01:51:48.736Z,-3.28
2017-01-19T01:52:10.480Z,-3.28
2017-01-19T01:52:32.260Z,-3.26
2017-01-19T01:52:54.003Z,-3.25
2017-01-19T01:53:15.749Z,-3.25
2017-01-19T01:53:37.485Z,-3.26
2017-01-19T01:53:59.217Z,-3.19
2017-01-19T01:54:20.952Z,-3.18
2017-01-19T01:54:42.735Z,-3.21
2017-01-19T01:55:04.472Z,-3.25
2017-01-19T01:55:26.210Z,-3.26
2017-01-19T01:55:47.958Z,-3.21
2017-01-19T01:56:09.697Z,-3.23
2017-01-19T01:56:31.477Z,-3.25
2017-01-19T01:56:53.208Z,-3.26
2017-01-19T01:57:15.033Z,-3.22
2017-01-19T01:57:36.767Z,-3.24
2017-01-19T01:57:58.508Z,-3.21
2017-01-19T01:58:20.248Z,-3.22
2017-01-19T01:58:41.980Z,-3.26
2017-01-19T01:59:03.739Z,-3.27
2017-01-19T01:59:25.468Z,-3.18
2017-01-19T01:59:47.202Z,-3.14
2017-01-19T02:00:08.938Z,-3.17
2017-01-19T02:00:30.688Z,-3.23
2017-01-19T02:00:52.421Z,-3.26
2017-01-19T02:01:14.179Z,-3.19
2017-01-19T02:01:35.980Z,-3.23
2017-01-19T02:01:57.740Z,-3.22
2017-01-19T02:02:19.479Z,-3.27
2017-01-19T02:02:41.220Z,-3.33
2017-01-19T02:03:02.953Z,-3.27
2017-01-19T02:03:27.498Z,-3.21
2017-01-19T02:03:49.235Z,-3.25
2017-01-19T02:04:10.977Z,-3.26
2017-01-19T02:04:32.713Z,-3.30
2017-01-19T02:04:54.439Z,-3.32
2017-01-19T02:05:16.183Z,-3.34
2017-01-19T02:05:37.921Z,-3.25
2017-01-19T02:05:59.664Z,-3.26
2017-01-19T02:06:21.418Z,-3.30
2017-01-19T02:06:43.172Z,-3.31
2017-01-19T02:07:04.916Z,-3.34
2017-01-19T02:07:26.657Z,-3.33
2017-01-19T02:07:48.391Z,-3.27
2017-01-19T02:08:10.120Z,-3.31
2017-01-19T02:08:31.855Z,-3.36
2017-01-19T02:08:53.602Z,-3.38
2017-01-19T02:09:15.329Z,-3.36
2017-01-19T02:09:37.073Z,-3.39
2017-01-19T02:09:58.811Z,-3.40
2017-01-19T02:10:20.565Z,-3.38
2017-01-19T02:10:42.433Z,-3.41
2017-01-19T02:11:04.164Z,-3.36
2017-01-19T02:11:25.937Z,-3.36
2017-01-19T02:11:47.701Z,-3.38
2017-01-19T02:12:09.446Z,-3.39
2017-01-19T02:12:31.176Z,-3.39
2017-01-19T02:12:52.987Z,-3.37
2017-01-19T02:13:14.729Z,-3.32
2017-01-19T02:13:36.458Z,-3.31
2017-01-19T02:13:58.198Z,-3.33
2017-01-19T02:14:19.935Z,-3.34
2017-01-19T02:14:41.665Z,-3.38
2017-01-19T02:15:03.398Z,-3.35
2017-01-19T02:15:25.129Z,-3.29
2017-01-19T02:15:46.862Z,-3.23
2017-01-19T02:16:08.603Z,-3.28
2017-01-19T02:16:30.363Z,-3.25
2017-01-19T02:16:54.140Z,-3.26
2017-01-19T02:17:16.096Z,-3.29
2017-01-19T02:17:37.827Z,-3.28
2017-01-19T02:17:59.561Z,-3.30
2017-01-19T02:18:21.294Z,-3.28
2017-01-19T02:18:43.035Z,-3.23
2017-01-19T02:19:04.766Z,-3.18
2017-01-19T02:19:26.629Z,-3.23
2017-01-19T02:19:48.368Z,-3.26
2017-01-19T02:20:10.104Z,-3.28
2017-01-19T02:20:31.829Z,-3.30
2017-01-19T02:20:53.560Z,-3.35
2017-01-19T02:21:15.324Z,-3.40
2017-01-19T02:21:37.068Z,-3.42
2017-01-19T02:21:58.811Z,-3.45
2017-01-19T02:22:20.555Z,-3.40
2017-01-19T02:22:42.289Z,-3.36
2017-01-19T02:23:04.025Z,-3.36
2017-01-19T02:23:25.761Z,-3.38
2017-01-19T02:23:47.496Z,-3.38
2017-01-19T02:24:09.225Z,-3.34
2017-01-19T02:24:30.974Z,-3.31
2017-01-19T02:24:52.715Z,-3.30
2017-01-19T02:25:14.448Z,-3.35
2017-01-19T02:25:36.193Z,-3.38
2017-01-19T02:25:57.929Z,-3.38
2017-01-19T02:26:19.689Z,-3.39
2017-01-19T02:26:41.424Z,-3.38
2017-01-19T02:27:03.184Z,-3.37
2017-01-19T02:27:24.937Z,-3.39
2017-01-19T02:27:46.671Z,-3.38
2017-01-19T02:28:08.414Z,-3.38
2017-01-19T02:28:30.147Z,-3.41
2017-01-19T02:28:51.879Z,-3.43
2017-01-19T02:29:13.617Z,-3.41
2017-01-19T02:29:35.354Z,-3.46
2017-01-19T02:29:57.087Z,-3.47
2017-01-19T02:30:18.846Z,-3.44
2017-01-19T02:30:40.582Z,-3.46
2017-01-19T02:31:02.399Z,-3.46
2017-01-19T02:31:24.142Z,-3.46
2017-01-19T02:31:45.900Z,-3.46
2017-01-19T02:32:07.656Z,-3.46
2017-01-19T02:32:29.409Z,-3.50
2017-01-19T02:32:51.144Z,-3.49
2017-01-19T02:33:12.894Z,-3.46
2017-01-19T02:33:34.630Z,-3.44
2017-01-19T02:33:56.366Z,-3.47
2017-01-19T02:34:18.103Z,-3.46
2017-01-19T02:34:39.836Z,-3.45
2017-01-19T02:35:01.574Z,-3.46
2017-01-19T02:35:23.317Z,-3.47
2017-01-19T02:35:45.046Z,-3.44
2017-01-19T02:36:06.791Z,-3.36
2017-01-19T02:36:28.535Z,-3.34
2017-01-19T02:36:50.278Z,-3.32
2017-01-19T02:37:12.020Z,-3.33
2017-01-19T02:37:33.770Z,-3.35
2017-01-19T02:37:55.575Z,-3.40
2017-01-19T02:38:17.261Z,-3.38
2017-01-19T02:38:38.993Z,-3.39
2017-01-19T02:39:00.737Z,-3.35
2017-01-19T02:39:22.472Z,-3.37
2017-01-19T02:39:44.211Z,-3.40
2017-01-19T02:40:05.947Z,-3.42
2017-01-19T02:40:27.675Z,-3.43
2017-01-19T02:40:49.422Z,-3.45
2017-01-19T02:41:11.159Z,-3.44
2017-01-19T02:41:32.891Z,-3.46
2017-01-19T02:41:54.634Z,-3.45
2017-01-19T02:42:16.364Z,-3.42
2017-01-19T02:42:38.161Z,-3.43
2017-01-19T02:42:59.905Z,-3.44
2017-01-19T02:43:21.641Z,-3.42
2017-01-19T02:43:43.400Z,-3.44
2017-01-19T02:44:05.141Z,-3.44
2017-01-19T02:44:26.880Z,-3.45
2017-01-19T02:44:48.630Z,-3.52
2017-01-19T02:45:10.488Z,-3.52
2017-01-19T02:45:32.226Z,-3.54
2017-01-19T02:45:53.968Z,-3.54
2017-01-19T02:46:15.711Z,-3.50
2017-01-19T02:46:37.440Z,-3.45
2017-01-19T02:46:59.188Z,-3.42
2017-01-19T02:47:20.927Z,-3.43
2017-01-19T02:47:42.685Z,-3.45
2017-01-19T02:48:04.436Z,-3.46
2017-01-19T02:48:26.189Z,-3.47
2017-01-19T02:48:47.934Z,-3.53
2017-01-19T02:49:09.672Z,-3.53
2017-01-19T02:49:31.419Z,-3.54
2017-01-19T02:49:53.153Z,-3.54
2017-01-19T02:50:14.900Z,-3.55
2017-01-19T02:50:36.634Z,-3.52
2017-01-19T02:50:58.377Z,-3.51
2017-01-19T02:51:20.114Z,-3.55
2017-01-19T02:51:41.848Z,-3.55
2017-01-19T02:52:03.587Z,-3.51
2017-01-19T02:52:25.330Z,-3.54
2017-01-19T02:52:47.069Z,-3.57
2017-01-19T02:53:08.815Z,-3.58
2017-01-19T02:53:30.582Z,-3.63
2017-01-19T02:53:54.932Z,-3.49
2017-01-19T02:54:16.658Z,-3.41
2017-01-19T02:54:38.405Z,-3.41
2017-01-19T02:55:00.146Z,-3.44
2017-01-19T02:55:21.882Z,-3.44
2017-01-19T02:55:43.618Z,-3.45
2017-01-19T02:56:05.351Z,-3.47
2017-01-19T02:56:27.095Z,-3.47
2017-01-19T02:56:48.835Z,-3.48
2017-01-19T02:57:10.577Z,-3.48
2017-01-19T02:57:32.313Z,-3.53
2017-01-19T02:57:54.072Z,-3.56
2017-01-19T02:58:15.831Z,-3.55
2017-01-19T02:58:37.568Z,-3.57
2017-01-19T02:58:59.305Z,-3.57
2017-01-19T02:59:21.049Z,-3.57
2017-01-19T02:59:42.790Z,-3.59
2017-01-19T03:00:04.533Z,-3.61
2017-01-19T03:00:26.280Z,-3.61
2017-01-19T03:00:48.140Z,-3.62
2017-01-19T03:01:09.872Z,-3.62
2017-01-19T03:01:31.612Z,-3.60
2017-01-19T03:01:53.353Z,-3.61
2017-01-19T03:02:15.084Z,-3.61
2017-01-19T03:02:36.850Z,-3.60
2017-01-19T03:02:58.589Z,-3.61
2017-01-19T03:03:20.394Z,-3.62
2017-01-19T03:03:42.145Z,-3.68
2017-01-19T03:04:03.874Z,-3.69
2017-01-19T03:04:25.617Z,-3.71
2017-01-19T03:04:47.354Z,-3.65
2017-01-19T03:05:09.087Z,-3.67
2017-01-19T03:05:30.893Z,-3.68
2017-01-19T03:05:52.631Z,-3.65
2017-01-19T03:06:14.364Z,-3.61
2017-01-19T03:06:36.109Z,-3.62
2017-01-19T03:06:57.846Z,-3.62
2017-01-19T03:07:19.589Z,-3.62
2017-01-19T03:07:41.332Z,-3.64
2017-01-19T03:08:03.073Z,-3.66
2017-01-19T03:08:24.836Z,-3.65
2017-01-19T03:08:46.591Z,-3.64
2017-01-19T03:09:08.316Z,-3.66
2017-01-19T03:09:30.052Z,-3.66
2017-01-19T03:09:51.813Z,-3.67
2017-01-19T03:10:13.678Z,-3.69
2017-01-19T03:11:01.919Z,-3.65
2017-01-19T03:11:23.659Z,-3.65
2017-01-19T03:11:45.403Z,-3.65
2017-01-19T03:12:07.137Z,-3.67
2017-01-19T03:12:28.890Z,-3.73
2017-01-19T03:12:50.616Z,-3.71
2017-01-19T03:13:12.355Z,-3.72
2017-01-19T03:13:34.131Z,-3.75
2017-01-19T03:13:55.868Z,-3.72
2017-01-19T03:14:17.632Z,-3.74
2017-01-19T03:14:39.373Z,-3.67
2017-01-19T03:15:01.109Z,-3.62
2017-01-19T03:15:22.850Z,-3.55
2017-01-19T03:15:44.590Z,-3.54
2017-01-19T03:16:06.450Z,-3.58
2017-01-19T03:16:28.178Z,-3.62
2017-01-19T03:16:49.990Z,-3.65
2017-01-19T03:17:11.749Z,-3.65
2017-01-19T03:17:33.504Z,-3.67
2017-01-19T03:17:55.251Z,-3.67
2017-01-19T03:18:16.977Z,-3.70
2017-01-19T03:18:38.741Z,-3.73
2017-01-19T03:19:00.483Z,-3.72
2017-01-19T03:19:24.230Z,-3.70
2017-01-19T03:19:45.968Z,-3.69
2017-01-19T03:20:07.728Z,-3.70
2017-01-19T03:20:29.462Z,-3.69
2017-01-19T03:20:51.201Z,-3.71
2017-01-19T03:21:12.948Z,-3.71
2017-01-19T03:21:34.680Z,-3.73
2017-01-19T03:21:56.411Z,-3.73
2017-01-19T03:22:18.151Z,-3.73
2017-01-19T03:22:39.936Z,-3.73
2017-01-19T03:23:01.621Z,-3.75
2017-01-19T03:23:23.360Z,-3.77
2017-01-19T03:23:45.109Z,-3.75
2017-01-19T03:24:06.848Z,-3.74
2017-01-19T03:24:31.472Z,-3.64
2017-01-19T03:24:53.224Z,-3.69
2017-01-19T03:25:14.963Z,-3.65
2017-01-19T03:25:36.717Z,-3.63
2017-01-19T03:25:58.459Z,-3.60
2017-01-19T03:26:20.200Z,-3.58
2017-01-19T03:26:41.946Z,-3.63
2017-01-19T03:27:03.733Z,-3.65
2017-01-19T03:27:25.466Z,-3.64
2017-01-19T03:27:47.227Z,-3.61
2017-01-19T03:28:08.981Z,-3.60
2017-01-19T03:28:30.728Z,-3.63
2017-01-19T03:28:52.469Z,-3.67
2017-01-19T03:29:14.217Z,-3.64
2017-01-19T03:29:35.964Z,-3.57
2017-01-19T03:29:57.700Z,-3.56
2017-01-19T03:30:19.441Z,-3.54
2017-01-19T03:30:41.173Z,-3.56
2017-01-19T03:31:02.917Z,-3.57
2017-01-19T03:31:24.777Z,-3.58
2017-01-19T03:31:46.379Z,-3.61
2017-01-19T03:32:08.132Z,-3.61
2017-01-19T03:32:29.867Z,-3.61
2017-01-19T03:32:51.604Z,-3.62
2017-01-19T03:33:13.356Z,-3.65
2017-01-19T03:33:35.094Z,-3.60
2017-01-19T03:34:01.611Z,-3.59
2017-01-19T03:34:23.352Z,-3.59
2017-01-19T03:34:45.102Z,-3.53
2017-01-19T03:35:06.856Z,-3.49
2017-01-19T03:35:28.594Z,-3.55
2017-01-19T03:35:50.341Z,-3.56
2017-01-19T03:36:12.079Z,-3.59
2017-01-19T03:36:33.812Z,-3.59
2017-01-19T03:36:55.538Z,-3.64
2017-01-19T03:37:17.289Z,-3.62
2017-01-19T03:37:39.107Z,-3.60
2017-01-19T03:38:00.843Z,-3.58
2017-01-19T03:38:22.588Z,-3.58
2017-01-19T03:38:44.322Z,-3.55
2017-01-19T03:39:06.078Z,-3.57
2017-01-19T03:39:27.825Z,-3.61
2017-01-19T03:39:49.564Z,-3.63
2017-01-19T03:40:11.307Z,-3.59
2017-01-19T03:40:33.057Z,-3.56
2017-01-19T03:40:54.792Z,-3.57
2017-01-19T03:41:16.527Z,-3.54
2017-01-19T03:41:38.280Z,-3.57
2017-01-19T03:42:00.006Z,-3.57
2017-01-19T03:42:21.740Z,-3.57
2017-01-19T03:42:43.495Z,-3.54
2017-01-19T03:43:05.240Z,-3.60
2017-01-19T03:43:26.975Z,-3.65
2017-01-19T03:43:48.723Z,-3.67
2017-01-19T03:44:10.454Z,-3.71
2017-01-19T03:44:32.200Z,-3.67
2017-01-19T03:44:53.973Z,-3.66
2017-01-19T03:45:15.728Z,-3.71
2017-01-19T03:45:37.459Z,-3.65
2017-01-19T03:45:59.205Z,-3.61
2017-01-19T03:46:20.940Z,-3.57
2017-01-19T03:46:42.685Z,-3.58
2017-01-19T03:47:04.428Z,-3.59
2017-01-19T03:47:26.166Z,-3.60
2017-01-19T03:47:47.910Z,-3.60
2017-01-19T03:48:09.647Z,-3.60
2017-01-19T03:48:31.380Z,-3.58
2017-01-19T03:48:53.129Z,-3.51
2017-01-19T03:49:14.866Z,-3.52
2017-01-19T03:49:36.601Z,-3.56
2017-01-19T03:49:58.338Z,-3.56
2017-01-19T03:50:20.098Z,-3.57
2017-01-19T03:50:41.839Z,-3.51
2017-01-19T03:51:03.588Z,-3.53
2017-01-19T03:51:25.330Z,-3.59
2017-01-19T03:51:47.070Z,-3.56
2017-01-19T03:52:08.802Z,-3.55
2017-01-19T03:52:30.540Z,-3.52
2017-01-19T03:52:52.288Z,-3.56
2017-01-19T03:53:14.048Z,-3.59
2017-01-19T03:53:35.783Z,-3.59
2017-01-19T03:53:57.597Z,-3.61
2017-01-19T03:54:19.335Z,-3.63
2017-01-19T03:54:41.081Z,-3.65
2017-01-19T03:55:02.839Z,-3.63
2017-01-19T03:55:24.582Z,-3.61
2017-01-19T03:55:46.336Z,-3.63
2017-01-19T03:56:08.069Z,-3.64
2017-01-19T03:56:29.847Z,-3.76
2017-01-19T03:56:51.587Z,-3.76
2017-01-19T03:57:13.322Z,-3.74
2017-01-19T03:57:35.061Z,-3.69
2017-01-19T03:57:56.812Z,-3.70
2017-01-19T03:58:18.552Z,-3.74
2017-01-19T03:58:40.294Z,-3.75
2017-01-19T03:59:02.035Z,-3.75
2017-01-19T03:59:23.777Z,-3.74
2017-01-19T03:59:45.507Z,-3.72
2017-01-19T04:00:07.255Z,-3.71
2017-01-19T04:00:29.011Z,-3.75
2017-01-19T04:00:50.756Z,-3.81
2017-01-19T04:01:12.502Z,-3.82
2017-01-19T04:01:34.246Z,-3.80
2017-01-19T04:01:55.987Z,-3.78
2017-01-19T04:02:17.718Z,-3.77
2017-01-19T04:02:39.457Z,-3.79
2017-01-19T04:03:01.189Z,-3.77
2017-01-19T04:03:22.921Z,-3.74
2017-01-19T04:03:44.656Z,-3.67
2017-01-19T04:04:06.403Z,-3.61
2017-01-19T04:04:28.145Z,-3.64
2017-01-19T04:04:49.886Z,-3.63
2017-01-19T04:05:11.623Z,-3.65
2017-01-19T04:05:33.364Z,-3.71
2017-01-19T04:05:55.121Z,-3.78
2017-01-19T04:06:16.864Z,-3.79
2017-01-19T04:06:38.587Z,-3.77
2017-01-19T04:07:00.328Z,-3.75
2017-01-19T04:07:22.058Z,-3.77
2017-01-19T04:07:43.788Z,-3.77
2017-01-19T04:08:05.521Z,-3.74
2017-01-19T04:08:27.258Z,-3.71
2017-01-19T04:08:49.032Z,-3.71
2017-01-19T04:09:10.765Z,-3.69
2017-01-19T04:09:32.510Z,-3.69
2017-01-19T04:09:54.250Z,-3.64
2017-01-19T04:10:16.117Z,-3.66
2017-01-19T04:10:37.866Z,-3.65
2017-01-19T04:10:59.601Z,-3.65
2017-01-19T04:11:21.348Z,-3.66
2017-01-19T04:11:43.080Z,-3.74
2017-01-19T04:12:04.821Z,-3.76
2017-01-19T04:12:26.570Z,-3.77
2017-01-19T04:12:48.359Z,-3.78
2017-01-19T04:13:10.098Z,-3.79
2017-01-19T04:13:31.833Z,-3.80
2017-01-19T04:13:53.563Z,-3.77
2017-01-19T04:14:15.314Z,-3.83
2017-01-19T04:14:37.047Z,-3.81
2017-01-19T04:14:58.901Z,-3.75
2017-01-19T04:15:20.667Z,-3.74
2017-01-19T04:15:42.415Z,-3.78
2017-01-19T04:16:04.152Z,-3.79
2017-01-19T04:16:25.899Z,-3.83
2017-01-19T04:16:47.647Z,-3.86
2017-01-19T04:17:09.378Z,-3.82
2017-01-19T04:17:31.125Z,-3.78
2017-01-19T04:17:52.876Z,-3.82
2017-01-19T04:18:14.616Z,-3.86
2017-01-19T04:18:36.353Z,-3.86
2017-01-19T04:18:58.088Z,-3.88
2017-01-19T04:19:19.826Z,-3.90
2017-01-19T04:19:41.649Z,-3.90
2017-01-19T04:20:03.378Z,-3.91
2017-01-19T04:20:25.133Z,-3.93
2017-01-19T04:20:46.875Z,-3.90
2017-01-19T04:21:08.621Z,-3.91
2017-01-19T04:21:35.125Z,-3.97
2017-01-19T04:21:56.860Z,-3.94
2017-01-19T04:22:18.603Z,-3.95
2017-01-19T04:22:40.326Z,-3.97
2017-01-19T04:23:02.080Z,-3.99
2017-01-19T04:23:23.816Z,-4.02
2017-01-19T04:23:45.554Z,-4.04
2017-01-19T04:24:07.282Z,-4.06
2017-01-19T04:24:29.029Z,-4.07
2017-01-19T04:24:50.761Z,-4.06
2017-01-19T04:25:12.524Z,-4.04
2017-01-19T04:25:34.279Z,-4.05
2017-01-19T04:25:56.021Z,-4.03
2017-01-19T04:26:17.765Z,-4.03
2017-01-19T04:26:39.493Z,-4.01
2017-01-19T04:27:01.242Z,-4.02
2017-01-19T04:27:22.981Z,-4.01
2017-01-19T04:27:44.720Z,-4.00
2017-01-19T04:28:06.469Z,-4.03
2017-01-19T04:28:28.223Z,-4.05
2017-01-19T04:28:49.952Z,-4.04
2017-01-19T04:29:11.689Z,-4.04
2017-01-19T04:29:33.423Z,-4.02
2017-01-19T04:29:55.152Z,-4.01
2017-01-19T04:30:16.889Z,-4.01
2017-01-19T04:30:38.631Z,-4.02
2017-01-19T04:31:00.362Z,-4.05
2017-01-19T04:31:22.099Z,-4.06
2017-01-19T04:31:43.840Z,-4.11
2017-01-19T04:32:05.588Z,-4.10
2017-01-19T04:32:27.325Z,-4.09
2017-01-19T04:32:49.058Z,-4.10
2017-01-19T04:33:10.809Z,-4.10
2017-01-19T04:33:32.548Z,-4.11
2017-01-19T04:33:54.286Z,-4.10
2017-01-19T04:34:16.029Z,-4.08
2017-01-19T04:34:40.425Z,-4.08
2017-01-19T04:35:02.157Z,-4.05
2017-01-19T04:35:23.897Z,-4.06
2017-01-19T04:35:45.652Z,-4.07
2017-01-19T04:36:07.385Z,-4.07
2017-01-19T04:36:29.128Z,-4.08
2017-01-19T04:36:50.868Z,-4.07
2017-01-19T04:37:12.615Z,-4.06
2017-01-19T04:37:34.352Z,-4.08
2017-01-19T04:37:56.092Z,-4.06
2017-01-19T04:38:17.834Z,-4.03
2017-01-19T04:38:39.576Z,-4.02
2017-01-19T04:39:01.318Z,-4.07
2017-01-19T04:39:23.051Z,-4.06
2017-01-19T04:39:44.790Z,-4.08
2017-01-19T04:40:06.523Z,-4.09
2017-01-19T04:40:28.259Z,-4.12
2017-01-19T04:40:49.998Z,-4.10
2017-01-19T04:41:11.758Z,-4.10
2017-01-19T04:41:33.499Z,-4.13
2017-01-19T04:41:58.104Z,-4.12
2017-01-19T04:42:19.876Z,-4.11
2017-01-19T04:42:41.594Z,-4.07
2017-01-19T04:43:03.326Z,-4.07
2017-01-19T04:43:25.121Z,-4.09
2017-01-19T04:43:46.864Z,-4.08
2017-01-19T04:44:08.603Z,-4.08
2017-01-19T04:44:30.334Z,-4.12
2017-01-19T04:44:52.065Z,-4.12
2017-01-19T04:45:13.809Z,-4.15
2017-01-19T04:45:35.675Z,-4.14
2017-01-19T04:45:57.405Z,-4.11
2017-01-19T04:46:19.165Z,-4.13
2017-01-19T04:46:40.898Z,-4.12
2017-01-19T04:47:02.632Z,-4.10
2017-01-19T04:47:24.382Z,-4.12
2017-01-19T04:47:46.113Z,-4.10
2017-01-19T04:48:07.842Z,-4.09
2017-01-19T04:48:29.604Z,-4.15
2017-01-19T04:48:51.336Z,-4.15
2017-01-19T04:49:13.090Z,-4.17
2017-01-19T04:49:34.834Z,-4.19
2017-01-19T04:49:56.567Z,-4.17
2017-01-19T04:50:18.431Z,-4.16
2017-01-19T04:50:40.167Z,-4.20
2017-01-19T04:51:01.902Z,-4.22
2017-01-19T04:51:23.654Z,-4.27
2017-01-19T04:51:45.391Z,-4.23
2017-01-19T04:52:07.131Z,-4.16
2017-01-19T04:52:28.873Z,-4.14
2017-01-19T04:52:50.609Z,-4.15
2017-01-19T04:53:12.350Z,-4.19
2017-01-19T04:53:34.092Z,-4.22
2017-01-19T04:53:55.829Z,-4.24
2017-01-19T04:54:17.561Z,-4.28
2017-01-19T04:54:39.310Z,-4.31
2017-01-19T04:55:01.179Z,-4.35
2017-01-19T04:55:22.913Z,-4.37
2017-01-19T04:55:44.654Z,-4.33
2017-01-19T04:56:06.398Z,-4.23
2017-01-19T04:56:28.137Z,-4.26
2017-01-19T04:56:49.869Z,-4.25
2017-01-19T04:57:11.601Z,-4.25
2017-01-19T04:57:33.367Z,-4.27
2017-01-19T04:57:55.138Z,-4.31
2017-01-19T04:58:16.858Z,-4.33
2017-01-19T04:58:38.597Z,-4.32